Main page
METAR-TAF:

METAR-TAF

Airports :

Lampang Airport

Lampang, Thailand

latitude: 18-17N, longitude: 099-31E, elevation: 241 m

Current weather observation

The report was made 7 hours and 40 minutes ago, at 13:00 UTC
Wind 3 kt from the West/Northwest, varying between West/Southwest and North/Northwest
Temperature 23°C
Humidity 89%
Pressure 1014 hPa
Visibility 10 km or more
Broken clouds at a height of 2500 ft

METAR: VTCL 011300Z 29003KT 250V330 9999 BKN025 23/21 Q1014 NOSIG

Time: 03:40 (20:40 UTC)

Forecast

The report was made 3 hours and 40 minutes ago, at 17:00 UTC
Forecast valid from 01 at 18 UTC to 02 at 18 UTC
Wind 5 kt from the East/Northeast
Visibility 10 km or more
Scattered clouds at a height of 2500 ft

TAF: VTCL 011700Z 0118/0218 06005KT 9999 SCT025

Weather observations and forecasts of more than 4000 airports (METAR and TAF reports).

The available stations are represented by yellow and red dots on the map.

Hover mouse over dot to see the name of the station.

Then click to see weather observations and forecasts.

To change the map : click on the green buttons with a black cross to zoom in, on the green button with a dash to zoom out, or on the green arrows for adjacent maps.


METAR-TAF: